sensor_id;sensor_type;location;lat;lon;timestamp;P1;durP1;ratioP1;P2;durP2;ratioP2
63350;SDS011;64988;51.058;17.040;2023-01-31T00:03:37;17.70;;;3.80;;
63350;SDS011;64988;51.058;17.040;2023-01-31T00:09:06;13.90;;;3.40;;
63350;SDS011;64988;51.058;17.040;2023-01-31T00:14:36;14.43;;;3.00;;
63350;SDS011;64988;51.058;17.040;2023-01-31T00:20:03;17.23;;;3.75;;
63350;SDS011;64988;51.058;17.040;2023-01-31T00:25:32;15.23;;;3.05;;
63350;SDS011;64988;51.058;17.040;2023-01-31T00:30:59;15.73;;;2.97;;
63350;SDS011;64988;51.058;17.040;2023-01-31T00:36:30;19.65;;;2.97;;
63350;SDS011;64988;51.058;17.040;2023-01-31T00:41:59;13.57;;;3.00;;
63350;SDS011;64988;51.058;17.040;2023-01-31T00:47:26;11.45;;;3.08;;
63350;SDS011;64988;51.058;17.040;2023-01-31T00:52:53;17.83;;;3.00;;
63350;SDS011;64988;51.058;17.040;2023-01-31T00:58:23;12.15;;;3.03;;
63350;SDS011;64988;51.058;17.040;2023-01-31T01:03:54;18.02;;;3.08;;
63350;SDS011;64988;51.058;17.040;2023-01-31T01:09:22;13.40;;;2.25;;
63350;SDS011;64988;51.058;17.040;2023-01-31T01:14:50;12.18;;;2.50;;
63350;SDS011;64988;51.058;17.040;2023-01-31T01:20:19;14.40;;;3.08;;
63350;SDS011;64988;51.058;17.040;2023-01-31T01:25:47;12.90;;;2.03;;
63350;SDS011;64988;51.058;17.040;2023-01-31T01:31:14;10.98;;;2.33;;
63350;SDS011;64988;51.058;17.040;2023-01-31T01:36:44;10.80;;;2.63;;
63350;SDS011;64988;51.058;17.040;2023-01-31T01:42:15;8.25;;;2.30;;
63350;SDS011;64988;51.058;17.040;2023-01-31T01:53:26;10.52;;;2.80;;
63350;SDS011;64988;51.058;17.040;2023-01-31T01:58:58;11.43;;;2.63;;
63350;SDS011;64988;51.058;17.040;2023-01-31T02:04:36;14.90;;;2.63;;
63350;SDS011;64988;51.058;17.040;2023-01-31T02:10:11;13.23;;;2.20;;
63350;SDS011;64988;51.058;17.040;2023-01-31T02:15:43;18.00;;;2.53;;
63350;SDS011;64988;51.058;17.040;2023-01-31T02:43:58;7.75;;;1.98;;
63350;SDS011;64988;51.058;17.040;2023-01-31T02:56:05;12.70;;;2.28;;
63350;SDS011;64988;51.058;17.040;2023-01-31T03:01:47;11.63;;;2.10;;
63350;SDS011;64988;51.058;17.040;2023-01-31T03:07:22;14.80;;;2.28;;
63350;SDS011;64988;51.058;17.040;2023-01-31T03:18:50;11.52;;;2.47;;
63350;SDS011;64988;51.058;17.040;2023-01-31T03:24:26;8.20;;;2.65;;
63350;SDS011;64988;51.058;17.040;2023-01-31T03:29:58;8.90;;;2.22;;
63350;SDS011;64988;51.058;17.040;2023-01-31T03:35:35;12.82;;;3.05;;
63350;SDS011;64988;51.058;17.040;2023-01-31T03:41:09;15.00;;;2.67;;
63350;SDS011;64988;51.058;17.040;2023-01-31T03:46:49;4.90;;;1.58;;
63350;SDS011;64988;51.058;17.040;2023-01-31T03:52:23;9.40;;;1.98;;
63350;SDS011;64988;51.058;17.040;2023-01-31T03:58:11;14.90;;;2.05;;
63350;SDS011;64988;51.058;17.040;2023-01-31T04:03:44;14.00;;;1.70;;
63350;SDS011;64988;51.058;17.040;2023-01-31T04:09:20;6.97;;;1.88;;
63350;SDS011;64988;51.058;17.040;2023-01-31T04:14:49;14.90;;;2.92;;
63350;SDS011;64988;51.058;17.040;2023-01-31T04:20:16;19.05;;;3.03;;
63350;SDS011;64988;51.058;17.040;2023-01-31T04:25:44;13.93;;;2.30;;
63350;SDS011;64988;51.058;17.040;2023-01-31T04:31:12;12.77;;;2.50;;
63350;SDS011;64988;51.058;17.040;2023-01-31T04:36:40;9.50;;;2.08;;
63350;SDS011;64988;51.058;17.040;2023-01-31T04:42:07;10.75;;;2.22;;
63350;SDS011;64988;51.058;17.040;2023-01-31T04:47:35;8.70;;;3.25;;
63350;SDS011;64988;51.058;17.040;2023-01-31T04:53:03;19.17;;;3.38;;
63350;SDS011;64988;51.058;17.040;2023-01-31T04:58:31;16.98;;;2.42;;
63350;SDS011;64988;51.058;17.040;2023-01-31T05:03:58;11.45;;;2.35;;
63350;SDS011;64988;51.058;17.040;2023-01-31T05:09:26;16.10;;;2.55;;
63350;SDS011;64988;51.058;17.040;2023-01-31T05:14:53;16.92;;;2.92;;
63350;SDS011;64988;51.058;17.040;2023-01-31T05:20:20;19.33;;;2.80;;
63350;SDS011;64988;51.058;17.040;2023-01-31T05:25:48;11.27;;;2.00;;
63350;SDS011;64988;51.058;17.040;2023-01-31T05:31:16;16.70;;;2.30;;
63350;SDS011;64988;51.058;17.040;2023-01-31T05:36:43;12.50;;;2.70;;
63350;SDS011;64988;51.058;17.040;2023-01-31T05:42:11;11.02;;;2.33;;
63350;SDS011;64988;51.058;17.040;2023-01-31T05:47:38;6.88;;;2.28;;
63350;SDS011;64988;51.058;17.040;2023-01-31T05:53:06;12.15;;;2.95;;
63350;SDS011;64988;51.058;17.040;2023-01-31T05:58:34;13.13;;;2.03;;
63350;SDS011;64988;51.058;17.040;2023-01-31T06:04:09;12.45;;;2.60;;
63350;SDS011;64988;51.058;17.040;2023-01-31T06:09:37;9.30;;;2.47;;
63350;SDS011;64988;51.058;17.040;2023-01-31T06:15:07;13.43;;;3.13;;
63350;SDS011;64988;51.058;17.040;2023-01-31T06:20:34;8.30;;;1.95;;
63350;SDS011;64988;51.058;17.040;2023-01-31T06:26:01;17.27;;;2.60;;
63350;SDS011;64988;51.058;17.040;2023-01-31T06:31:28;11.48;;;2.13;;
63350;SDS011;64988;51.058;17.040;2023-01-31T06:36:56;13.60;;;2.95;;
63350;SDS011;64988;51.058;17.040;2023-01-31T06:42:24;12.52;;;2.58;;
63350;SDS011;64988;51.058;17.040;2023-01-31T06:47:52;12.63;;;2.60;;
63350;SDS011;64988;51.058;17.040;2023-01-31T06:53:19;12.20;;;2.60;;
63350;SDS011;64988;51.058;17.040;2023-01-31T06:58:47;10.30;;;2.85;;
63350;SDS011;64988;51.058;17.040;2023-01-31T07:04:16;14.68;;;2.92;;
63350;SDS011;64988;51.058;17.040;2023-01-31T07:09:43;18.98;;;3.60;;
63350;SDS011;64988;51.058;17.040;2023-01-31T07:15:11;12.50;;;2.85;;
63350;SDS011;64988;51.058;17.040;2023-01-31T07:20:40;15.93;;;3.63;;
63350;SDS011;64988;51.058;17.040;2023-01-31T07:26:08;18.50;;;3.30;;
63350;SDS011;64988;51.058;17.040;2023-01-31T07:31:37;14.98;;;3.80;;
63350;SDS011;64988;51.058;17.040;2023-01-31T07:37:05;19.63;;;3.78;;
63350;SDS011;64988;51.058;17.040;2023-01-31T07:42:33;17.83;;;4.78;;
63350;SDS011;64988;51.058;17.040;2023-01-31T07:48:00;16.63;;;4.50;;
63350;SDS011;64988;51.058;17.040;2023-01-31T07:53:28;15.27;;;4.03;;
63350;SDS011;64988;51.058;17.040;2023-01-31T07:58:58;14.38;;;2.97;;
63350;SDS011;64988;51.058;17.040;2023-01-31T08:04:25;14.02;;;2.85;;
63350;SDS011;64988;51.058;17.040;2023-01-31T08:09:52;10.50;;;3.75;;
63350;SDS011;64988;51.058;17.040;2023-01-31T08:15:20;8.95;;;2.50;;
63350;SDS011;64988;51.058;17.040;2023-01-31T08:20:48;10.05;;;3.45;;
63350;SDS011;64988;51.058;17.040;2023-01-31T08:26:16;13.70;;;3.22;;
63350;SDS011;64988;51.058;17.040;2023-01-31T08:31:44;11.73;;;3.15;;
63350;SDS011;64988;51.058;17.040;2023-01-31T08:37:12;10.25;;;3.40;;
63350;SDS011;64988;51.058;17.040;2023-01-31T08:42:40;14.43;;;2.60;;
63350;SDS011;64988;51.058;17.040;2023-01-31T08:48:07;14.27;;;3.60;;
63350;SDS011;64988;51.058;17.040;2023-01-31T08:53:33;15.70;;;3.38;;
63350;SDS011;64988;51.058;17.040;2023-01-31T08:59:05;13.80;;;3.10;;
63350;SDS011;64988;51.058;17.040;2023-01-31T09:04:33;10.35;;;3.05;;
63350;SDS011;64988;51.058;17.040;2023-01-31T09:10:01;5.25;;;1.67;;
63350;SDS011;64988;51.058;17.040;2023-01-31T09:15:29;5.50;;;2.25;;
63350;SDS011;64988;51.058;17.040;2023-01-31T09:21:02;11.95;;;2.88;;
63350;SDS011;64988;51.058;17.040;2023-01-31T09:26:33;12.45;;;2.22;;
63350;SDS011;64988;51.058;17.040;2023-01-31T09:31:59;15.65;;;3.33;;
63350;SDS011;64988;51.058;17.040;2023-01-31T09:37:30;9.77;;;2.35;;
63350;SDS011;64988;51.058;17.040;2023-01-31T09:42:59;10.88;;;3.45;;
63350;SDS011;64988;51.058;17.040;2023-01-31T09:48:30;15.20;;;2.80;;
63350;SDS011;64988;51.058;17.040;2023-01-31T09:54:11;13.88;;;2.63;;
63350;SDS011;64988;51.058;17.040;2023-01-31T10:05:21;13.93;;;3.38;;
63350;SDS011;64988;51.058;17.040;2023-01-31T10:10:52;12.23;;;3.73;;
63350;SDS011;64988;51.058;17.040;2023-01-31T10:22:09;8.63;;;3.20;;
63350;SDS011;64988;51.058;17.040;2023-01-31T10:28:05;17.13;;;3.85;;
63350;SDS011;64988;51.058;17.040;2023-01-31T10:33:43;12.73;;;3.05;;
63350;SDS011;64988;51.058;17.040;2023-01-31T10:39:18;20.20;;;4.25;;
63350;SDS011;64988;51.058;17.040;2023-01-31T10:56:21;18.95;;;4.15;;
63350;SDS011;64988;51.058;17.040;2023-01-31T11:02:03;13.07;;;2.95;;
63350;SDS011;64988;51.058;17.040;2023-01-31T11:07:31;15.52;;;4.15;;
63350;SDS011;64988;51.058;17.040;2023-01-31T11:13:01;12.75;;;4.57;;
63350;SDS011;64988;51.058;17.040;2023-01-31T11:18:37;17.67;;;4.43;;
63350;SDS011;64988;51.058;17.040;2023-01-31T11:24:20;19.20;;;5.70;;
63350;SDS011;64988;51.058;17.040;2023-01-31T11:29:55;13.52;;;4.57;;
63350;SDS011;64988;51.058;17.040;2023-01-31T11:40:57;12.82;;;3.55;;
63350;SDS011;64988;51.058;17.040;2023-01-31T11:46:25;11.18;;;3.15;;
63350;SDS011;64988;51.058;17.040;2023-01-31T11:51:52;7.75;;;2.65;;
63350;SDS011;64988;51.058;17.040;2023-01-31T11:57:21;7.93;;;3.13;;
63350;SDS011;64988;51.058;17.040;2023-01-31T12:03:07;6.82;;;3.63;;
63350;SDS011;64988;51.058;17.040;2023-01-31T12:08:41;9.32;;;3.30;;
63350;SDS011;64988;51.058;17.040;2023-01-31T12:14:12;5.53;;;2.72;;
63350;SDS011;64988;51.058;17.040;2023-01-31T12:54:33;11.27;;;4.13;;
63350;SDS011;64988;51.058;17.040;2023-01-31T13:00:40;9.13;;;3.92;;
63350;SDS011;64988;51.058;17.040;2023-01-31T13:06:17;15.10;;;5.00;;
63350;SDS011;64988;51.058;17.040;2023-01-31T13:17:47;21.48;;;6.65;;
63350;SDS011;64988;51.058;17.040;2023-01-31T13:23:22;11.52;;;4.70;;
63350;SDS011;64988;51.058;17.040;2023-01-31T13:40:45;9.27;;;4.35;;
63350;SDS011;64988;51.058;17.040;2023-01-31T13:46:19;15.68;;;4.70;;
63350;SDS011;64988;51.058;17.040;2023-01-31T13:57:57;16.40;;;4.75;;
63350;SDS011;64988;51.058;17.040;2023-01-31T14:04:19;9.65;;;4.28;;
63350;SDS011;64988;51.058;17.040;2023-01-31T14:16:03;12.82;;;4.53;;
63350;SDS011;64988;51.058;17.040;2023-01-31T14:26:58;11.60;;;4.18;;
63350;SDS011;64988;51.058;17.040;2023-01-31T14:32:30;15.27;;;4.07;;
63350;SDS011;64988;51.058;17.040;2023-01-31T14:45:15;14.77;;;4.43;;
63350;SDS011;64988;51.058;17.040;2023-01-31T14:50:23;21.92;;;5.93;;
63350;SDS011;64988;51.058;17.040;2023-01-31T15:01:53;13.38;;;5.28;;
63350;SDS011;64988;51.058;17.040;2023-01-31T15:07:22;17.83;;;6.32;;
63350;SDS011;64988;51.058;17.040;2023-01-31T15:12:57;21.23;;;6.07;;
63350;SDS011;64988;51.058;17.040;2023-01-31T15:18:26;13.45;;;5.78;;
63350;SDS011;64988;51.058;17.040;2023-01-31T15:23:55;17.20;;;5.55;;
63350;SDS011;64988;51.058;17.040;2023-01-31T15:29:26;10.70;;;4.75;;
63350;SDS011;64988;51.058;17.040;2023-01-31T15:35:05;20.55;;;7.40;;
63350;SDS011;64988;51.058;17.040;2023-01-31T15:40:40;22.45;;;8.57;;
63350;SDS011;64988;51.058;17.040;2023-01-31T15:52:00;23.20;;;7.10;;
63350;SDS011;64988;51.058;17.040;2023-01-31T15:57:44;13.77;;;5.47;;
63350;SDS011;64988;51.058;17.040;2023-01-31T16:03:25;14.48;;;5.78;;
63350;SDS011;64988;51.058;17.040;2023-01-31T16:08:56;19.58;;;6.22;;
63350;SDS011;64988;51.058;17.040;2023-01-31T16:14:27;15.27;;;6.10;;
63350;SDS011;64988;51.058;17.040;2023-01-31T16:19:56;13.70;;;5.97;;
63350;SDS011;64988;51.058;17.040;2023-01-31T16:25:24;17.40;;;6.53;;
63350;SDS011;64988;51.058;17.040;2023-01-31T16:30:52;12.52;;;5.97;;
63350;SDS011;64988;51.058;17.040;2023-01-31T16:36:31;13.95;;;6.03;;
63350;SDS011;64988;51.058;17.040;2023-01-31T16:42:21;16.88;;;6.03;;
63350;SDS011;64988;51.058;17.040;2023-01-31T16:47:51;14.13;;;6.47;;
63350;SDS011;64988;51.058;17.040;2023-01-31T16:58:49;12.55;;;6.45;;
63350;SDS011;64988;51.058;17.040;2023-01-31T17:04:20;17.45;;;7.95;;
63350;SDS011;64988;51.058;17.040;2023-01-31T17:09:52;18.38;;;9.25;;
63350;SDS011;64988;51.058;17.040;2023-01-31T17:15:24;21.30;;;9.27;;
63350;SDS011;64988;51.058;17.040;2023-01-31T17:20:53;27.23;;;9.88;;
63350;SDS011;64988;51.058;17.040;2023-01-31T17:26:21;21.83;;;9.32;;
63350;SDS011;64988;51.058;17.040;2023-01-31T17:31:49;22.15;;;9.45;;
63350;SDS011;64988;51.058;17.040;2023-01-31T17:37:17;19.77;;;8.80;;
63350;SDS011;64988;51.058;17.040;2023-01-31T17:43:01;21.33;;;8.50;;
63350;SDS011;64988;51.058;17.040;2023-01-31T17:48:30;15.93;;;8.27;;
63350;SDS011;64988;51.058;17.040;2023-01-31T17:53:58;23.33;;;11.13;;
63350;SDS011;64988;51.058;17.040;2023-01-31T17:59:25;23.80;;;10.50;;
63350;SDS011;64988;51.058;17.040;2023-01-31T18:04:53;21.55;;;9.65;;
63350;SDS011;64988;51.058;17.040;2023-01-31T18:10:21;18.35;;;7.95;;
63350;SDS011;64988;51.058;17.040;2023-01-31T18:15:49;16.77;;;7.03;;
63350;SDS011;64988;51.058;17.040;2023-01-31T18:21:28;12.57;;;6.97;;
63350;SDS011;64988;51.058;17.040;2023-01-31T18:26:58;16.83;;;7.03;;
63350;SDS011;64988;51.058;17.040;2023-01-31T18:32:25;8.07;;;4.93;;
63350;SDS011;64988;51.058;17.040;2023-01-31T18:37:55;6.47;;;4.25;;
63350;SDS011;64988;51.058;17.040;2023-01-31T18:43:28;12.20;;;4.35;;
63350;SDS011;64988;51.058;17.040;2023-01-31T18:48:58;5.68;;;3.80;;
63350;SDS011;64988;51.058;17.040;2023-01-31T18:54:27;7.03;;;3.95;;
63350;SDS011;64988;51.058;17.040;2023-01-31T18:59:54;7.28;;;3.53;;
63350;SDS011;64988;51.058;17.040;2023-01-31T19:05:21;5.88;;;3.35;;
63350;SDS011;64988;51.058;17.040;2023-01-31T19:10:49;7.45;;;4.22;;
63350;SDS011;64988;51.058;17.040;2023-01-31T19:16:17;6.15;;;3.58;;
63350;SDS011;64988;51.058;17.040;2023-01-31T19:21:50;5.80;;;4.18;;
63350;SDS011;64988;51.058;17.040;2023-01-31T19:27:18;5.80;;;3.83;;
63350;SDS011;64988;51.058;17.040;2023-01-31T19:32:46;9.43;;;4.85;;
63350;SDS011;64988;51.058;17.040;2023-01-31T19:38:15;11.27;;;5.45;;
63350;SDS011;64988;51.058;17.040;2023-01-31T19:43:47;7.40;;;5.00;;
63350;SDS011;64988;51.058;17.040;2023-01-31T19:49:16;5.80;;;3.58;;
63350;SDS011;64988;51.058;17.040;2023-01-31T19:54:43;9.57;;;4.57;;
63350;SDS011;64988;51.058;17.040;2023-01-31T20:00:11;8.00;;;4.72;;
63350;SDS011;64988;51.058;17.040;2023-01-31T20:05:39;12.65;;;4.40;;
63350;SDS011;64988;51.058;17.040;2023-01-31T20:11:07;10.70;;;3.75;;
63350;SDS011;64988;51.058;17.040;2023-01-31T20:16:35;9.25;;;5.97;;
63350;SDS011;64988;51.058;17.040;2023-01-31T20:22:03;10.15;;;5.50;;
63350;SDS011;64988;51.058;17.040;2023-01-31T20:27:30;6.97;;;4.68;;
63350;SDS011;64988;51.058;17.040;2023-01-31T20:33:01;6.50;;;4.13;;
63350;SDS011;64988;51.058;17.040;2023-01-31T20:38:29;6.50;;;3.97;;
63350;SDS011;64988;51.058;17.040;2023-01-31T20:43:57;6.68;;;3.70;;
63350;SDS011;64988;51.058;17.040;2023-01-31T20:49:24;5.80;;;4.03;;
63350;SDS011;64988;51.058;17.040;2023-01-31T20:54:53;7.30;;;3.42;;
63350;SDS011;64988;51.058;17.040;2023-01-31T21:00:21;7.78;;;3.95;;
63350;SDS011;64988;51.058;17.040;2023-01-31T21:05:49;7.82;;;3.55;;
63350;SDS011;64988;51.058;17.040;2023-01-31T21:11:16;4.53;;;3.40;;
63350;SDS011;64988;51.058;17.040;2023-01-31T21:16:43;5.93;;;3.70;;
63350;SDS011;64988;51.058;17.040;2023-01-31T21:22:11;7.03;;;3.90;;
63350;SDS011;64988;51.058;17.040;2023-01-31T21:27:39;6.80;;;4.00;;
63350;SDS011;64988;51.058;17.040;2023-01-31T21:33:07;5.45;;;4.10;;
63350;SDS011;64988;51.058;17.040;2023-01-31T21:38:35;8.23;;;4.60;;
63350;SDS011;64988;51.058;17.040;2023-01-31T21:44:03;5.88;;;4.63;;
63350;SDS011;64988;51.058;17.040;2023-01-31T21:49:31;10.40;;;5.82;;
63350;SDS011;64988;51.058;17.040;2023-01-31T21:54:59;7.05;;;4.38;;
63350;SDS011;64988;51.058;17.040;2023-01-31T22:00:27;8.82;;;4.22;;
63350;SDS011;64988;51.058;17.040;2023-01-31T22:05:53;5.95;;;3.38;;
63350;SDS011;64988;51.058;17.040;2023-01-31T22:11:27;6.50;;;4.15;;
63350;SDS011;64988;51.058;17.040;2023-01-31T22:17:02;6.90;;;3.88;;
63350;SDS011;64988;51.058;17.040;2023-01-31T22:22:29;7.38;;;4.15;;
63350;SDS011;64988;51.058;17.040;2023-01-31T22:27:56;10.60;;;4.03;;
63350;SDS011;64988;51.058;17.040;2023-01-31T22:33:23;5.88;;;3.97;;
63350;SDS011;64988;51.058;17.040;2023-01-31T22:38:51;5.93;;;3.90;;
63350;SDS011;64988;51.058;17.040;2023-01-31T22:44:19;7.15;;;3.65;;
63350;SDS011;64988;51.058;17.040;2023-01-31T22:49:47;7.68;;;3.45;;
63350;SDS011;64988;51.058;17.040;2023-01-31T22:55:14;6.18;;;2.33;;
63350;SDS011;64988;51.058;17.040;2023-01-31T23:00:41;11.63;;;2.75;;
63350;SDS011;64988;51.058;17.040;2023-01-31T23:06:09;3.30;;;0.63;;
63350;SDS011;64988;51.058;17.040;2023-01-31T23:11:37;2.00;;;0.85;;
63350;SDS011;64988;51.058;17.040;2023-01-31T23:17:06;2.63;;;0.43;;
63350;SDS011;64988;51.058;17.040;2023-01-31T23:23:10;1.20;;;0.80;;
63350;SDS011;64988;51.058;17.040;2023-01-31T23:28:37;0.82;;;0.60;;
63350;SDS011;64988;51.058;17.040;2023-01-31T23:34:05;3.50;;;0.80;;
63350;SDS011;64988;51.058;17.040;2023-01-31T23:39:33;1.85;;;0.45;;
63350;SDS011;64988;51.058;17.040;2023-01-31T23:45:00;2.75;;;1.33;;
63350;SDS011;64988;51.058;17.040;2023-01-31T23:50:27;2.13;;;0.63;;
63350;SDS011;64988;51.058;17.040;2023-01-31T23:55:54;1.20;;;0.70;;
